Terminal Aerodrome Forecast
Issued by NWS

Home | Current Version | Previous Version | Text Only | Print | Product List | Glossary On
Versions: 1 2 3 4 5 6 7 8 9 10 11 12 13 14 15 16 17 18 19 20 21 22 23 24 25 26 27 28 29 30 31
000
FTUS43 KDLH 190500
TAFHIB
TAF
KHIB 190540Z 1906/2006 00000KT P6SM -RA VCSH BKN007 OVC018
     FM190900 VRB02KT 6SM BR OVC007
     FM191500 35004KT P6SM OVC014
     FM191800 35005KT P6SM VCSH OVC035
     FM200000 VRB03KT P6SM SCT035=

USA.gov is the U.S. government's official web portal to all federal, state and local government web resources and services.